sensor_id;sensor_type;location;lat;lon;timestamp;temperature;humidity
61400;DHT22;47269;48.182;-1.946;2023-04-15T06:01:39;8.10;99.90
61400;DHT22;47269;48.182;-1.946;2023-04-15T06:04:05;8.10;99.90
61400;DHT22;47269;48.182;-1.946;2023-04-15T06:06:31;8.10;99.90
61400;DHT22;47269;48.182;-1.946;2023-04-15T06:08:59;8.10;99.90
61400;DHT22;47269;48.182;-1.946;2023-04-15T06:11:25;8.20;99.90
61400;DHT22;47269;48.182;-1.946;2023-04-15T06:13:51;8.20;99.90
61400;DHT22;47269;48.182;-1.946;2023-04-15T06:16:17;8.30;99.90
61400;DHT22;47269;48.182;-1.946;2023-04-15T06:18:43;8.30;99.90
61400;DHT22;47269;48.182;-1.946;2023-04-15T06:21:09;8.40;99.90
61400;DHT22;47269;48.182;-1.946;2023-04-15T06:23:35;8.40;99.90
61400;DHT22;47269;48.182;-1.946;2023-04-15T06:26:01;8.50;99.90
61400;DHT22;47269;48.182;-1.946;2023-04-15T06:28:27;8.60;99.90
61400;DHT22;47269;48.182;-1.946;2023-04-15T06:30:53;8.60;99.90
61400;DHT22;47269;48.182;-1.946;2023-04-15T06:33:19;8.70;99.90
61400;DHT22;47269;48.182;-1.946;2023-04-15T06:35:44;8.80;99.90
61400;DHT22;47269;48.182;-1.946;2023-04-15T06:38:10;8.80;99.90
61400;DHT22;47269;48.182;-1.946;2023-04-15T06:40:36;8.90;99.90
61400;DHT22;47269;48.182;-1.946;2023-04-15T06:43:02;8.90;99.90
61400;DHT22;47269;48.182;-1.946;2023-04-15T06:45:29;9.10;99.90
61400;DHT22;47269;48.182;-1.946;2023-04-15T06:47:55;9.40;99.90
61400;DHT22;47269;48.182;-1.946;2023-04-15T06:50:24;9.40;99.90
61400;DHT22;47269;48.182;-1.946;2023-04-15T06:52:50;9.40;99.90
61400;DHT22;47269;48.182;-1.946;2023-04-15T06:55:15;9.30;99.90
61400;DHT22;47269;48.182;-1.946;2023-04-15T06:57:41;9.30;99.90
61400;DHT22;47269;48.182;-1.946;2023-04-15T07:00:07;9.30;99.90
61400;DHT22;47269;48.182;-1.946;2023-04-15T07:02:35;9.30;99.90
61400;DHT22;47269;48.182;-1.946;2023-04-15T07:05:01;9.40;99.90
61400;DHT22;47269;48.182;-1.946;2023-04-15T07:07:27;9.50;99.90
61400;DHT22;47269;48.182;-1.946;2023-04-15T07:09:53;9.60;99.90
61400;DHT22;47269;48.182;-1.946;2023-04-15T07:12:19;9.80;99.90
61400;DHT22;47269;48.182;-1.946;2023-04-15T07:14:45;10.00;99.90
61400;DHT22;47269;48.182;-1.946;2023-04-15T07:17:11;10.00;99.90
61400;DHT22;47269;48.182;-1.946;2023-04-15T07:19:36;10.20;99.90
61400;DHT22;47269;48.182;-1.946;2023-04-15T07:22:02;10.60;99.90
61400;DHT22;47269;48.182;-1.946;2023-04-15T07:24:28;11.20;99.90
61400;DHT22;47269;48.182;-1.946;2023-04-15T07:26:54;11.20;99.90
61400;DHT22;47269;48.182;-1.946;2023-04-15T07:29:23;10.90;99.90
61400;DHT22;47269;48.182;-1.946;2023-04-15T07:31:49;11.50;99.90
61400;DHT22;47269;48.182;-1.946;2023-04-15T07:34:15;11.70;99.90
61400;DHT22;47269;48.182;-1.946;2023-04-15T07:36:41;11.40;99.90
61400;DHT22;47269;48.182;-1.946;2023-04-15T07:39:07;11.20;99.90
61400;DHT22;47269;48.182;-1.946;2023-04-15T07:41:32;11.10;99.90
61400;DHT22;47269;48.182;-1.946;2023-04-15T07:43:58;11.10;99.90
61400;DHT22;47269;48.182;-1.946;2023-04-15T07:46:24;11.60;99.90
61400;DHT22;47269;48.182;-1.946;2023-04-15T07:48:52;11.40;99.90
61400;DHT22;47269;48.182;-1.946;2023-04-15T07:51:18;11.70;99.90
61400;DHT22;47269;48.182;-1.946;2023-04-15T07:53:45;12.50;99.90
61400;DHT22;47269;48.182;-1.946;2023-04-15T07:56:11;12.40;99.90
61400;DHT22;47269;48.182;-1.946;2023-04-15T07:58:37;12.50;99.90
61400;DHT22;47269;48.182;-1.946;2023-04-15T08:01:04;12.00;99.90
61400;DHT22;47269;48.182;-1.946;2023-04-15T08:03:29;12.10;99.90
61400;DHT22;47269;48.182;-1.946;2023-04-15T08:05:56;12.20;99.90
61400;DHT22;47269;48.182;-1.946;2023-04-15T08:08:22;11.90;99.90
61400;DHT22;47269;48.182;-1.946;2023-04-15T08:10:48;12.50;99.90
61400;DHT22;47269;48.182;-1.946;2023-04-15T08:13:14;12.70;99.90
61400;DHT22;47269;48.182;-1.946;2023-04-15T08:15:40;13.40;99.90
61400;DHT22;47269;48.182;-1.946;2023-04-15T08:18:06;13.70;99.90
61400;DHT22;47269;48.182;-1.946;2023-04-15T08:20:32;13.90;99.90
61400;DHT22;47269;48.182;-1.946;2023-04-15T08:22:58;13.60;99.90
61400;DHT22;47269;48.182;-1.946;2023-04-15T08:25:23;13.20;99.90
61400;DHT22;47269;48.182;-1.946;2023-04-15T08:27:49;12.20;99.90
61400;DHT22;47269;48.182;-1.946;2023-04-15T08:30:15;13.00;99.90
61400;DHT22;47269;48.182;-1.946;2023-04-15T08:32:50;12.10;99.90
61400;DHT22;47269;48.182;-1.946;2023-04-15T08:35:16;11.90;99.90
61400;DHT22;47269;48.182;-1.946;2023-04-15T08:37:42;11.50;99.90
61400;DHT22;47269;48.182;-1.946;2023-04-15T08:40:08;11.30;99.90
61400;DHT22;47269;48.182;-1.946;2023-04-15T08:42:43;11.70;99.90
61400;DHT22;47269;48.182;-1.946;2023-04-15T08:45:14;14.00;99.90
61400;DHT22;47269;48.182;-1.946;2023-04-15T08:47:40;15.30;99.90
61400;DHT22;47269;48.182;-1.946;2023-04-15T08:50:08;15.20;99.90
61400;DHT22;47269;48.182;-1.946;2023-04-15T08:52:35;15.50;99.90
61400;DHT22;47269;48.182;-1.946;2023-04-15T08:55:01;15.60;99.90
61400;DHT22;47269;48.182;-1.946;2023-04-15T08:57:28;15.10;99.90
61400;DHT22;47269;48.182;-1.946;2023-04-15T08:59:57;14.70;99.90
61400;DHT22;47269;48.182;-1.946;2023-04-15T09:02:24;15.80;99.90
61400;DHT22;47269;48.182;-1.946;2023-04-15T09:04:52;15.50;99.90
61400;DHT22;47269;48.182;-1.946;2023-04-15T09:07:17;15.70;99.90
61400;DHT22;47269;48.182;-1.946;2023-04-15T09:09:43;16.00;99.90
61400;DHT22;47269;48.182;-1.946;2023-04-15T09:12:10;15.80;99.90
61400;DHT22;47269;48.182;-1.946;2023-04-15T09:14:39;17.10;99.90
61400;DHT22;47269;48.182;-1.946;2023-04-15T09:17:05;16.20;99.90
61400;DHT22;47269;48.182;-1.946;2023-04-15T09:19:34;16.00;99.90
61400;DHT22;47269;48.182;-1.946;2023-04-15T09:22:01;14.50;99.90
61400;DHT22;47269;48.182;-1.946;2023-04-15T09:24:38;15.50;99.90
61400;DHT22;47269;48.182;-1.946;2023-04-15T09:27:04;16.00;99.90
61400;DHT22;47269;48.182;-1.946;2023-04-15T09:29:30;15.60;99.90
61400;DHT22;47269;48.182;-1.946;2023-04-15T09:32:10;15.90;99.90
61400;DHT22;47269;48.182;-1.946;2023-04-15T09:34:36;16.10;99.90
61400;DHT22;47269;48.182;-1.946;2023-04-15T09:37:02;17.30;99.90
61400;DHT22;47269;48.182;-1.946;2023-04-15T09:39:47;17.00;99.90
61400;DHT22;47269;48.182;-1.946;2023-04-15T09:42:14;16.50;99.90
61400;DHT22;47269;48.182;-1.946;2023-04-15T09:44:42;16.70;99.90
61400;DHT22;47269;48.182;-1.946;2023-04-15T09:47:08;17.50;99.90
61400;DHT22;47269;48.182;-1.946;2023-04-15T09:49:34;17.60;99.90
61400;DHT22;47269;48.182;-1.946;2023-04-15T09:52:00;17.50;99.90
61400;DHT22;47269;48.182;-1.946;2023-04-15T09:54:36;14.90;99.90
61400;DHT22;47269;48.182;-1.946;2023-04-15T09:57:08;15.10;99.90
61400;DHT22;47269;48.182;-1.946;2023-04-15T09:59:35;15.80;99.90
61400;DHT22;47269;48.182;-1.946;2023-04-15T10:02:03;16.90;99.90
61400;DHT22;47269;48.182;-1.946;2023-04-15T10:04:35;16.80;99.90
61400;DHT22;47269;48.182;-1.946;2023-04-15T10:07:03;17.30;99.90
61400;DHT22;47269;48.182;-1.946;2023-04-15T10:09:30;17.40;99.90
61400;DHT22;47269;48.182;-1.946;2023-04-15T10:11:56;18.60;99.90
61400;DHT22;47269;48.182;-1.946;2023-04-15T10:14:22;18.50;99.90
61400;DHT22;47269;48.182;-1.946;2023-04-15T10:16:50;18.20;99.90
61400;DHT22;47269;48.182;-1.946;2023-04-15T10:19:19;18.20;99.90
61400;DHT22;47269;48.182;-1.946;2023-04-15T10:21:48;17.60;99.90
61400;DHT22;47269;48.182;-1.946;2023-04-15T10:24:15;15.60;99.90
61400;DHT22;47269;48.182;-1.946;2023-04-15T10:26:41;17.40;99.90
61400;DHT22;47269;48.182;-1.946;2023-04-15T10:29:08;18.10;99.90
61400;DHT22;47269;48.182;-1.946;2023-04-15T10:31:35;19.60;99.90
61400;DHT22;47269;48.182;-1.946;2023-04-15T10:34:03;17.10;99.90
61400;DHT22;47269;48.182;-1.946;2023-04-15T10:36:31;18.40;99.90
61400;DHT22;47269;48.182;-1.946;2023-04-15T10:38:57;18.10;99.90
61400;DHT22;47269;48.182;-1.946;2023-04-15T10:41:25;15.40;99.90
61400;DHT22;47269;48.182;-1.946;2023-04-15T10:43:59;17.30;99.90
61400;DHT22;47269;48.182;-1.946;2023-04-15T10:46:44;16.90;99.90
61400;DHT22;47269;48.182;-1.946;2023-04-15T10:51:44;16.50;99.90
61400;DHT22;47269;48.182;-1.946;2023-04-15T10:54:15;15.90;99.90
61400;DHT22;47269;48.182;-1.946;2023-04-15T10:56:44;14.40;99.90
61400;DHT22;47269;48.182;-1.946;2023-04-15T10:59:11;16.20;99.90
61400;DHT22;47269;48.182;-1.946;2023-04-15T11:02:11;15.50;99.90
61400;DHT22;47269;48.182;-1.946;2023-04-15T11:04:57;17.10;99.90
61400;DHT22;47269;48.182;-1.946;2023-04-15T11:07:54;19.80;99.90
61400;DHT22;47269;48.182;-1.946;2023-04-15T11:13:15;18.30;99.90
61400;DHT22;47269;48.182;-1.946;2023-04-15T11:15:45;16.50;99.90
61400;DHT22;47269;48.182;-1.946;2023-04-15T11:20:55;19.00;99.90
61400;DHT22;47269;48.182;-1.946;2023-04-15T11:23:32;16.80;99.90
61400;DHT22;47269;48.182;-1.946;2023-04-15T11:26:00;16.60;99.90
61400;DHT22;47269;48.182;-1.946;2023-04-15T11:28:32;19.90;99.90
61400;DHT22;47269;48.182;-1.946;2023-04-15T11:31:02;16.80;99.90
61400;DHT22;47269;48.182;-1.946;2023-04-15T11:33:30;18.90;99.90
61400;DHT22;47269;48.182;-1.946;2023-04-15T11:35:58;20.40;99.90
61400;DHT22;47269;48.182;-1.946;2023-04-15T11:38:23;21.00;99.90
61400;DHT22;47269;48.182;-1.946;2023-04-15T11:40:50;21.30;99.90
61400;DHT22;47269;48.182;-1.946;2023-04-15T11:43:19;20.70;99.90
61400;DHT22;47269;48.182;-1.946;2023-04-15T11:48:14;20.50;99.90
61400;DHT22;47269;48.182;-1.946;2023-04-15T11:50:40;20.60;99.80
61400;DHT22;47269;48.182;-1.946;2023-04-15T11:53:10;19.80;98.00
61400;DHT22;47269;48.182;-1.946;2023-04-15T11:55:45;20.20;97.90
61400;DHT22;47269;48.182;-1.946;2023-04-15T12:00:39;20.00;98.00
61400;DHT22;47269;48.182;-1.946;2023-04-15T12:03:41;19.00;99.90
61400;DHT22;47269;48.182;-1.946;2023-04-15T12:06:22;20.70;99.40
61400;DHT22;47269;48.182;-1.946;2023-04-15T12:09:22;16.80;99.90
61400;DHT22;47269;48.182;-1.946;2023-04-15T12:11:42;17.60;99.90
61400;DHT22;47269;48.182;-1.946;2023-04-15T12:17:10;19.10;99.90
61400;DHT22;47269;48.182;-1.946;2023-04-15T12:19:30;19.90;98.50
61400;DHT22;47269;48.182;-1.946;2023-04-15T12:22:12;19.50;98.30
61400;DHT22;47269;48.182;-1.946;2023-04-15T12:24:38;21.20;97.90
61400;DHT22;47269;48.182;-1.946;2023-04-15T12:27:06;20.90;97.20
61400;DHT22;47269;48.182;-1.946;2023-04-15T12:29:34;18.40;96.10
61400;DHT22;47269;48.182;-1.946;2023-04-15T12:32:08;21.00;99.00
61400;DHT22;47269;48.182;-1.946;2023-04-15T12:34:43;21.10;99.00
61400;DHT22;47269;48.182;-1.946;2023-04-15T12:37:11;20.20;99.50
61400;DHT22;47269;48.182;-1.946;2023-04-15T12:39:39;18.00;99.90
61400;DHT22;47269;48.182;-1.946;2023-04-15T12:42:06;17.20;99.90
61400;DHT22;47269;48.182;-1.946;2023-04-15T12:44:32;17.80;99.90
61400;DHT22;47269;48.182;-1.946;2023-04-15T12:46:58;18.90;99.90
61400;DHT22;47269;48.182;-1.946;2023-04-15T12:49:25;17.10;99.90
61400;DHT22;47269;48.182;-1.946;2023-04-15T12:51:56;17.30;99.90
61400;DHT22;47269;48.182;-1.946;2023-04-15T12:54:22;17.10;99.90
61400;DHT22;47269;48.182;-1.946;2023-04-15T12:56:49;17.00;99.90
61400;DHT22;47269;48.182;-1.946;2023-04-15T12:59:16;16.20;99.90
61400;DHT22;47269;48.182;-1.946;2023-04-15T13:01:43;16.30;99.90
61400;DHT22;47269;48.182;-1.946;2023-04-15T13:04:09;16.20;99.90
61400;DHT22;47269;48.182;-1.946;2023-04-15T13:06:35;16.30;99.90
61400;DHT22;47269;48.182;-1.946;2023-04-15T13:09:02;16.00;99.90
61400;DHT22;47269;48.182;-1.946;2023-04-15T13:11:31;16.70;99.90
61400;DHT22;47269;48.182;-1.946;2023-04-15T13:14:01;16.30;99.90
61400;DHT22;47269;48.182;-1.946;2023-04-15T13:16:27;16.50;99.90
61400;DHT22;47269;48.182;-1.946;2023-04-15T13:18:53;16.50;99.90
61400;DHT22;47269;48.182;-1.946;2023-04-15T13:21:19;16.40;99.90
61400;DHT22;47269;48.182;-1.946;2023-04-15T13:23:44;16.40;99.90
61400;DHT22;47269;48.182;-1.946;2023-04-15T13:26:11;16.50;99.90
61400;DHT22;47269;48.182;-1.946;2023-04-15T13:28:36;16.40;99.90
61400;DHT22;47269;48.182;-1.946;2023-04-15T13:31:02;16.00;99.90
61400;DHT22;47269;48.182;-1.946;2023-04-15T13:33:28;16.00;99.90
61400;DHT22;47269;48.182;-1.946;2023-04-15T13:35:53;16.20;99.90
61400;DHT22;47269;48.182;-1.946;2023-04-15T13:38:19;16.00;99.90
61400;DHT22;47269;48.182;-1.946;2023-04-15T13:40:45;16.50;99.90
61400;DHT22;47269;48.182;-1.946;2023-04-15T13:43:11;16.90;99.90
61400;DHT22;47269;48.182;-1.946;2023-04-15T13:45:37;16.00;99.90
61400;DHT22;47269;48.182;-1.946;2023-04-15T13:48:03;15.80;99.90
61400;DHT22;47269;48.182;-1.946;2023-04-15T13:50:29;16.00;99.90
61400;DHT22;47269;48.182;-1.946;2023-04-15T13:52:55;16.10;99.90
61400;DHT22;47269;48.182;-1.946;2023-04-15T13:55:20;15.60;99.90
61400;DHT22;47269;48.182;-1.946;2023-04-15T13:57:46;15.70;99.90
61400;DHT22;47269;48.182;-1.946;2023-04-15T14:00:12;15.50;99.90
61400;DHT22;47269;48.182;-1.946;2023-04-15T14:02:39;15.60;99.90
61400;DHT22;47269;48.182;-1.946;2023-04-15T14:05:05;15.90;99.90
61400;DHT22;47269;48.182;-1.946;2023-04-15T14:07:31;15.70;99.90
61400;DHT22;47269;48.182;-1.946;2023-04-15T14:09:57;15.80;99.90
61400;DHT22;47269;48.182;-1.946;2023-04-15T14:12:22;15.60;99.90
61400;DHT22;47269;48.182;-1.946;2023-04-15T14:14:48;16.10;99.90
61400;DHT22;47269;48.182;-1.946;2023-04-15T14:17:14;16.10;99.90
61400;DHT22;47269;48.182;-1.946;2023-04-15T14:19:39;15.40;99.90
61400;DHT22;47269;48.182;-1.946;2023-04-15T14:22:05;15.90;99.90
61400;DHT22;47269;48.182;-1.946;2023-04-15T14:24:31;15.80;99.90
61400;DHT22;47269;48.182;-1.946;2023-04-15T14:26:57;16.00;99.90
61400;DHT22;47269;48.182;-1.946;2023-04-15T14:29:23;16.10;99.90
61400;DHT22;47269;48.182;-1.946;2023-04-15T14:31:49;15.90;99.90
61400;DHT22;47269;48.182;-1.946;2023-04-15T14:34:16;15.70;99.90
61400;DHT22;47269;48.182;-1.946;2023-04-15T14:36:41;15.60;99.90
61400;DHT22;47269;48.182;-1.946;2023-04-15T14:39:07;15.70;99.90
61400;DHT22;47269;48.182;-1.946;2023-04-15T14:41:33;16.00;99.90
61400;DHT22;47269;48.182;-1.946;2023-04-15T14:43:59;15.60;99.90
61400;DHT22;47269;48.182;-1.946;2023-04-15T14:46:26;15.50;99.90
61400;DHT22;47269;48.182;-1.946;2023-04-15T14:48:52;15.80;99.90
61400;DHT22;47269;48.182;-1.946;2023-04-15T14:51:18;15.80;99.90
61400;DHT22;47269;48.182;-1.946;2023-04-15T14:53:44;16.00;99.90
61400;DHT22;47269;48.182;-1.946;2023-04-15T14:56:10;15.60;99.90
61400;DHT22;47269;48.182;-1.946;2023-04-15T14:58:36;15.30;99.90
61400;DHT22;47269;48.182;-1.946;2023-04-15T15:01:02;15.20;99.90
61400;DHT22;47269;48.182;-1.946;2023-04-15T15:03:28;15.40;99.90
61400;DHT22;47269;48.182;-1.946;2023-04-15T15:05:54;15.60;99.90
61400;DHT22;47269;48.182;-1.946;2023-04-15T15:08:22;15.40;99.90
61400;DHT22;47269;48.182;-1.946;2023-04-15T15:10:47;15.20;99.90
61400;DHT22;47269;48.182;-1.946;2023-04-15T15:13:13;15.60;99.90
61400;DHT22;47269;48.182;-1.946;2023-04-15T15:15:39;15.30;99.90
61400;DHT22;47269;48.182;-1.946;2023-04-15T15:18:05;15.00;99.90
61400;DHT22;47269;48.182;-1.946;2023-04-15T15:20:33;15.50;99.90
61400;DHT22;47269;48.182;-1.946;2023-04-15T15:23:00;15.30;99.90
61400;DHT22;47269;48.182;-1.946;2023-04-15T15:25:26;15.60;99.90
61400;DHT22;47269;48.182;-1.946;2023-04-15T15:27:52;15.10;99.90
61400;DHT22;47269;48.182;-1.946;2023-04-15T15:30:18;15.30;99.90
61400;DHT22;47269;48.182;-1.946;2023-04-15T15:32:43;15.70;99.90
61400;DHT22;47269;48.182;-1.946;2023-04-15T15:35:09;15.20;99.90
61400;DHT22;47269;48.182;-1.946;2023-04-15T15:37:36;15.20;99.90
61400;DHT22;47269;48.182;-1.946;2023-04-15T15:40:05;14.90;99.90
61400;DHT22;47269;48.182;-1.946;2023-04-15T15:42:32;15.10;99.90
61400;DHT22;47269;48.182;-1.946;2023-04-15T15:44:58;15.00;99.90
61400;DHT22;47269;48.182;-1.946;2023-04-15T15:47:23;14.80;99.90
61400;DHT22;47269;48.182;-1.946;2023-04-15T15:49:51;14.80;99.90
61400;DHT22;47269;48.182;-1.946;2023-04-15T15:52:17;15.00;99.90
61400;DHT22;47269;48.182;-1.946;2023-04-15T15:54:42;15.20;99.90
61400;DHT22;47269;48.182;-1.946;2023-04-15T15:57:08;15.10;99.90
61400;DHT22;47269;48.182;-1.946;2023-04-15T15:59:34;15.10;99.90
61400;DHT22;47269;48.182;-1.946;2023-04-15T16:02:00;14.70;99.90
61400;DHT22;47269;48.182;-1.946;2023-04-15T16:04:26;14.60;99.90
61400;DHT22;47269;48.182;-1.946;2023-04-15T16:06:52;14.80;99.90
61400;DHT22;47269;48.182;-1.946;2023-04-15T16:09:18;14.50;99.90
61400;DHT22;47269;48.182;-1.946;2023-04-15T16:11:44;14.50;99.90
61400;DHT22;47269;48.182;-1.946;2023-04-15T16:14:10;14.20;99.90
61400;DHT22;47269;48.182;-1.946;2023-04-15T16:16:37;14.10;99.90
61400;DHT22;47269;48.182;-1.946;2023-04-15T16:19:03;14.10;99.90
61400;DHT22;47269;48.182;-1.946;2023-04-15T16:21:29;14.20;99.90
61400;DHT22;47269;48.182;-1.946;2023-04-15T16:23:56;14.10;99.90
61400;DHT22;47269;48.182;-1.946;2023-04-15T16:26:22;13.80;99.90
61400;DHT22;47269;48.182;-1.946;2023-04-15T16:28:48;14.00;99.90
61400;DHT22;47269;48.182;-1.946;2023-04-15T16:31:13;13.80;99.90
61400;DHT22;47269;48.182;-1.946;2023-04-15T16:33:40;13.90;99.90
61400;DHT22;47269;48.182;-1.946;2023-04-15T16:36:05;13.70;99.90
61400;DHT22;47269;48.182;-1.946;2023-04-15T16:38:31;14.00;99.90
61400;DHT22;47269;48.182;-1.946;2023-04-15T16:40:59;13.80;99.90
61400;DHT22;47269;48.182;-1.946;2023-04-15T16:43:25;13.80;99.90
61400;DHT22;47269;48.182;-1.946;2023-04-15T16:45:51;13.60;99.90
61400;DHT22;47269;48.182;-1.946;2023-04-15T16:48:19;13.80;99.90
61400;DHT22;47269;48.182;-1.946;2023-04-15T16:50:45;13.90;99.90
61400;DHT22;47269;48.182;-1.946;2023-04-15T16:53:11;13.60;99.90
61400;DHT22;47269;48.182;-1.946;2023-04-15T16:55:38;13.80;99.90
61400;DHT22;47269;48.182;-1.946;2023-04-15T16:58:04;13.50;99.90
61400;DHT22;47269;48.182;-1.946;2023-04-15T17:00:30;13.60;99.90
61400;DHT22;47269;48.182;-1.946;2023-04-15T17:02:56;13.70;99.90
61400;DHT22;47269;48.182;-1.946;2023-04-15T17:05:22;13.70;99.90
61400;DHT22;47269;48.182;-1.946;2023-04-15T17:07:47;13.60;99.90
61400;DHT22;47269;48.182;-1.946;2023-04-15T17:10:13;13.60;99.90
61400;DHT22;47269;48.182;-1.946;2023-04-15T17:12:39;13.40;99.90
61400;DHT22;47269;48.182;-1.946;2023-04-15T17:15:06;13.20;99.90
61400;DHT22;47269;48.182;-1.946;2023-04-15T17:17:31;13.20;99.90
61400;DHT22;47269;48.182;-1.946;2023-04-15T17:19:57;13.20;99.90
61400;DHT22;47269;48.182;-1.946;2023-04-15T17:22:23;12.80;99.90
61400;DHT22;47269;48.182;-1.946;2023-04-15T17:24:48;12.70;99.90
61400;DHT22;47269;48.182;-1.946;2023-04-15T17:27:14;12.80;99.90
61400;DHT22;47269;48.182;-1.946;2023-04-15T17:29:40;12.70;99.90
61400;DHT22;47269;48.182;-1.946;2023-04-15T17:32:06;12.60;99.90
61400;DHT22;47269;48.182;-1.946;2023-04-15T17:34:32;12.70;99.90
61400;DHT22;47269;48.182;-1.946;2023-04-15T17:36:57;12.50;99.90
61400;DHT22;47269;48.182;-1.946;2023-04-15T17:39:23;12.40;99.90
61400;DHT22;47269;48.182;-1.946;2023-04-15T17:41:49;12.50;99.90
61400;DHT22;47269;48.182;-1.946;2023-04-15T17:44:14;12.30;99.90
61400;DHT22;47269;48.182;-1.946;2023-04-15T17:46:40;12.30;99.90
61400;DHT22;47269;48.182;-1.946;2023-04-15T17:49:06;12.20;99.90
61400;DHT22;47269;48.182;-1.946;2023-04-15T17:51:31;12.10;99.90
61400;DHT22;47269;48.182;-1.946;2023-04-15T17:53:57;12.00;99.90
61400;DHT22;47269;48.182;-1.946;2023-04-15T17:56:23;12.00;99.90
61400;DHT22;47269;48.182;-1.946;2023-04-15T17:58:51;12.00;99.90
61400;DHT22;47269;48.182;-1.946;2023-04-15T18:01:16;11.90;99.90
61400;DHT22;47269;48.182;-1.946;2023-04-15T18:03:43;11.90;99.90
61400;DHT22;47269;48.182;-1.946;2023-04-15T18:06:10;11.80;99.90
61400;DHT22;47269;48.182;-1.946;2023-04-15T18:08:36;11.70;99.90
61400;DHT22;47269;48.182;-1.946;2023-04-15T18:11:02;11.60;99.90
61400;DHT22;47269;48.182;-1.946;2023-04-15T18:13:28;11.60;99.90
61400;DHT22;47269;48.182;-1.946;2023-04-15T18:15:54;11.60;99.90
61400;DHT22;47269;48.182;-1.946;2023-04-15T18:18:20;11.40;99.90
61400;DHT22;47269;48.182;-1.946;2023-04-15T18:20:46;11.40;99.90
61400;DHT22;47269;48.182;-1.946;2023-04-15T18:23:12;11.30;99.90
61400;DHT22;47269;48.182;-1.946;2023-04-15T18:25:39;11.30;99.90
61400;DHT22;47269;48.182;-1.946;2023-04-15T18:28:08;11.20;99.90
61400;DHT22;47269;48.182;-1.946;2023-04-15T18:30:34;11.20;99.90
61400;DHT22;47269;48.182;-1.946;2023-04-15T18:33:00;11.00;99.90
61400;DHT22;47269;48.182;-1.946;2023-04-15T18:35:26;11.00;99.90
61400;DHT22;47269;48.182;-1.946;2023-04-15T18:37:56;10.90;99.90
61400;DHT22;47269;48.182;-1.946;2023-04-15T18:40:23;10.80;99.90
61400;DHT22;47269;48.182;-1.946;2023-04-15T18:42:48;10.60;99.90
61400;DHT22;47269;48.182;-1.946;2023-04-15T18:45:14;10.50;99.90
61400;DHT22;47269;48.182;-1.946;2023-04-15T18:47:40;10.40;99.90
61400;DHT22;47269;48.182;-1.946;2023-04-15T18:50:07;10.40;99.90
61400;DHT22;47269;48.182;-1.946;2023-04-15T18:52:32;10.30;99.90
61400;DHT22;47269;48.182;-1.946;2023-04-15T18:54:59;10.20;99.90
61400;DHT22;47269;48.182;-1.946;2023-04-15T18:57:25;10.10;99.90
61400;DHT22;47269;48.182;-1.946;2023-04-15T18:59:51;10.10;99.90
61400;DHT22;47269;48.182;-1.946;2023-04-15T19:02:17;10.00;99.90
61400;DHT22;47269;48.182;-1.946;2023-04-15T19:04:42;9.90;99.90
61400;DHT22;47269;48.182;-1.946;2023-04-15T19:07:08;9.90;99.90
61400;DHT22;47269;48.182;-1.946;2023-04-15T19:09:34;9.90;99.90
61400;DHT22;47269;48.182;-1.946;2023-04-15T19:12:01;9.80;99.90
61400;DHT22;47269;48.182;-1.946;2023-04-15T19:14:27;9.90;99.90
61400;DHT22;47269;48.182;-1.946;2023-04-15T19:16:53;9.90;99.90
61400;DHT22;47269;48.182;-1.946;2023-04-15T19:19:19;9.80;99.90
61400;DHT22;47269;48.182;-1.946;2023-04-15T19:21:44;9.80;99.90
61400;DHT22;47269;48.182;-1.946;2023-04-15T19:24:16;9.80;99.90
61400;DHT22;47269;48.182;-1.946;2023-04-15T19:26:51;9.70;99.90
61400;DHT22;47269;48.182;-1.946;2023-04-15T19:29:17;9.70;99.90
61400;DHT22;47269;48.182;-1.946;2023-04-15T19:31:43;9.70;99.90
61400;DHT22;47269;48.182;-1.946;2023-04-15T19:34:09;9.60;99.90
61400;DHT22;47269;48.182;-1.946;2023-04-15T19:36:35;9.50;99.90
61400;DHT22;47269;48.182;-1.946;2023-04-15T19:39:00;9.50;99.90
61400;DHT22;47269;48.182;-1.946;2023-04-15T19:41:26;9.30;99.90
61400;DHT22;47269;48.182;-1.946;2023-04-15T19:43:52;9.30;99.90
61400;DHT22;47269;48.182;-1.946;2023-04-15T19:46:18;9.40;99.90
61400;DHT22;47269;48.182;-1.946;2023-04-15T19:48:43;9.30;99.90
61400;DHT22;47269;48.182;-1.946;2023-04-15T19:51:10;9.20;99.90
61400;DHT22;47269;48.182;-1.946;2023-04-15T19:53:35;9.10;99.90
61400;DHT22;47269;48.182;-1.946;2023-04-15T19:56:01;9.10;99.90
61400;DHT22;47269;48.182;-1.946;2023-04-15T19:58:27;9.00;99.90
61400;DHT22;47269;48.182;-1.946;2023-04-15T20:00:52;9.00;99.90
61400;DHT22;47269;48.182;-1.946;2023-04-15T20:03:18;9.00;99.90
61400;DHT22;47269;48.182;-1.946;2023-04-15T20:05:44;8.90;99.90
61400;DHT22;47269;48.182;-1.946;2023-04-15T20:08:10;8.80;99.90
61400;DHT22;47269;48.182;-1.946;2023-04-15T20:10:36;8.70;99.90
61400;DHT22;47269;48.182;-1.946;2023-04-15T20:13:02;8.60;99.90
61400;DHT22;47269;48.182;-1.946;2023-04-15T20:15:28;8.70;99.90
61400;DHT22;47269;48.182;-1.946;2023-04-15T20:17:53;8.60;99.90
61400;DHT22;47269;48.182;-1.946;2023-04-15T20:20:19;8.60;99.90
61400;DHT22;47269;48.182;-1.946;2023-04-15T20:22:45;8.60;99.90
61400;DHT22;47269;48.182;-1.946;2023-04-15T20:25:11;8.60;99.90
61400;DHT22;47269;48.182;-1.946;2023-04-15T20:27:37;8.60;99.90
61400;DHT22;47269;48.182;-1.946;2023-04-15T20:30:03;8.50;99.90
61400;DHT22;47269;48.182;-1.946;2023-04-15T20:32:29;8.50;99.90
61400;DHT22;47269;48.182;-1.946;2023-04-15T20:35:03;8.50;99.90
61400;DHT22;47269;48.182;-1.946;2023-04-15T20:37:29;8.40;99.90
61400;DHT22;47269;48.182;-1.946;2023-04-15T20:40:00;8.40;99.90
61400;DHT22;47269;48.182;-1.946;2023-04-15T20:42:26;8.40;99.90
61400;DHT22;47269;48.182;-1.946;2023-04-15T20:44:51;8.40;99.90
61400;DHT22;47269;48.182;-1.946;2023-04-15T20:47:17;8.40;99.90
61400;DHT22;47269;48.182;-1.946;2023-04-15T20:49:43;8.30;99.90
61400;DHT22;47269;48.182;-1.946;2023-04-15T20:52:09;8.40;99.90
61400;DHT22;47269;48.182;-1.946;2023-04-15T20:54:35;8.30;99.90
61400;DHT22;47269;48.182;-1.946;2023-04-15T20:57:01;8.20;99.90
61400;DHT22;47269;48.182;-1.946;2023-04-15T20:59:27;8.10;99.90
61400;DHT22;47269;48.182;-1.946;2023-04-15T21:01:53;8.10;99.90
61400;DHT22;47269;48.182;-1.946;2023-04-15T21:04:21;8.00;99.90
61400;DHT22;47269;48.182;-1.946;2023-04-15T21:06:46;7.80;99.90
61400;DHT22;47269;48.182;-1.946;2023-04-15T21:09:13;7.80;99.90
61400;DHT22;47269;48.182;-1.946;2023-04-15T21:11:38;7.90;99.90
61400;DHT22;47269;48.182;-1.946;2023-04-15T21:14:07;8.00;99.90
61400;DHT22;47269;48.182;-1.946;2023-04-15T21:16:33;7.90;99.90
61400;DHT22;47269;48.182;-1.946;2023-04-15T21:18:58;7.80;99.90
61400;DHT22;47269;48.182;-1.946;2023-04-15T21:21:24;7.80;99.90
61400;DHT22;47269;48.182;-1.946;2023-04-15T21:23:51;7.80;99.90
61400;DHT22;47269;48.182;-1.946;2023-04-15T21:26:17;7.80;99.90
61400;DHT22;47269;48.182;-1.946;2023-04-15T21:28:42;7.90;99.90
61400;DHT22;47269;48.182;-1.946;2023-04-15T21:31:08;8.00;99.90
61400;DHT22;47269;48.182;-1.946;2023-04-15T21:33:34;8.00;99.90
61400;DHT22;47269;48.182;-1.946;2023-04-15T21:36:00;8.00;99.90